METAR Data
IDs: Format: Raw Decoded Include TAF

Data at: 1312 UTC 26 Feb 2021

LICR 261250Z AUTO 33007KT 300V010 9999 NCD 18/09 Q1027